6MI0 weather

King Trout Airport
Grayling, Michigan, United States

Public forecast

Using degrees Fahrenheit for public forecast. Weather courtesy of forecast.io.

Closest aviation weather report (METAR) to King Trout Airport

Closest report is Grayling Army Air Field, 10.3 nm (19.1 km) ENE. Retrieved 2019/10/24 04:43 UTC (0 seconds ago):

KGOV 240443Z AUTO 00000KT 4SM -RA BR FEW006 BKN020 OVC033 04/04 A2995 RMK AO2 CIG 020V034 BKN V FEW SLP157

Closest aviation forecast (TAF) to King Trout Airport

Closest forecast is Cherry Capital Airport, 28.0 nm (51.8 km) WNW. Retrieved 2019-10-24 00:22 UTC (4 hours ago):

TAF KTVC 232320Z 2400/2424 23006KT P6SM VCSH BKN060 FM240400 VRB04KT 6SM -SHRA OVC030 FM240900 30006KT P6SM VCSH OVC035 FM241200 30009KT P6SM BKN050 FM241400 29011G20KT P6SM OVC030 FM241900 28011KT P6SM OVC035